Terminal Aerodrome Forecast
Issued by NWS El Paso, TX

Home | Current Version | Previous Version | Text Only | Print | Product List | Glossary On
Versions: 1 2 3 4 5 6 7 8 9 10 11 12 13 14 15 16 17 18 19 20 21 22 23 24 25 26 27 28 29
000
FTUS44 KEPZ 192320
TAFELP
TAF
KELP 192320Z 2000/2024 14006KT P6SM FEW250
     FM200500 07005KT P6SM SKC
     FM201200 10007KT P6SM FEW180
     FM201700 23012G20KT P6SM FEW180
     FM202100 24018G28KT P6SM SCT150=

USA.gov is the U.S. government's official web portal to all federal, state and local government web resources and services.